Time;durP1;ratioP1;P1;durP2;ratioP2;P2;SDS_P1;SDS_P2;PMS_P1;PMS_P2;Temp;Humidity;BMP_temperature;BMP_pressure;BME280_temperature;BME280_humidity;BME280_pressure;Samples;Min_cycle;Max_cycle;Signal;HPM_P1;HPM_P2
2023/05/06 00:01:16;;;;;;;1.17;0.50;;;;;;;12.47;100.00;99531.84;7397247;19;20017;-62
2023/05/06 00:03:42;;;;;;;0.47;0.32;;;;;;;13.24;100.00;99523.94;7397312;19;20362;-62
2023/05/06 00:06:08;;;;;;;0.30;0.13;;;;;;;13.67;100.00;99516.97;7396391;19;20006;-61
2023/05/06 00:08:34;;;;;;;0.52;0.47;;;;;;;13.72;100.00;99511.91;7400088;19;20014;-62
2023/05/06 00:11:01;;;;;;;2.35;0.63;;;;;;;13.66;100.00;99514.69;7399342;19;20035;-61
2023/05/06 00:13:27;;;;;;;0.28;0.20;;;;;;;13.29;100.00;99514.06;7398283;19;20014;-62
2023/05/06 00:15:53;;;;;;;1.00;0.45;;;;;;;12.95;100.00;99518.69;7398006;19;20066;-62
2023/05/06 00:18:21;;;;;;;0.70;0.50;;;;;;;13.55;100.00;99515.44;7400803;19;20017;-62
2023/05/06 00:20:47;;;;;;;0.45;0.20;;;;;;;11.94;100.00;99512.84;7395221;19;20019;-62
2023/05/06 00:23:14;;;;;;;1.00;0.28;;;;;;;11.57;100.00;99521.06;7394966;19;20019;-62
2023/05/06 00:25:40;;;;;;;0.73;0.57;;;;;;;10.92;100.00;99530.13;7396581;19;20478;-62
2023/05/06 00:28:07;;;;;;;0.25;0.13;;;;;;;11.34;100.00;99525.63;7398996;19;20010;-62
2023/05/06 00:30:33;;;;;;;0.20;0.15;;;;;;;12.24;100.00;99516.16;7396636;19;20019;-62
2023/05/06 00:32:59;;;;;;;0.77;0.40;;;;;;;12.72;100.00;99508.63;7395580;19;20019;-62
2023/05/06 00:35:25;;;;;;;0.43;0.40;;;;;;;12.84;100.00;99501.88;7396095;19;20006;-62
2023/05/06 00:37:57;;;;;;;0.10;0.10;;;;;;;11.37;100.00;99509.94;7397309;19;20006;-62
2023/05/06 00:40:23;;;;;;;0.10;0.10;;;;;;;10.70;100.00;99515.91;7395917;19;20021;-62
2023/05/06 00:42:49;;;;;;;1.27;0.55;;;;;;;10.25;100.00;99525.56;7394209;19;20018;-62
2023/05/06 00:45:15;;;;;;;10.23;0.68;;;;;;;11.96;100.00;99519.47;7393269;19;20006;-62
2023/05/06 00:47:42;;;;;;;0.90;0.57;;;;;;;12.46;100.00;99497.56;7397370;19;20018;-62
2023/05/06 00:50:08;;;;;;;0.63;0.32;;;;;;;12.51;100.00;99494.03;7397075;19;20080;-62
2023/05/06 00:52:34;;;;;;;0.30;0.30;;;;;;;23.53;100.00;99482.97;7393753;19;20035;-62
2023/05/06 00:55:01;;;;;;;8.30;0.70;;;;;;;25.81;86.75;99477.66;7394586;19;20490;-61
2023/05/06 00:57:28;;;;;;;0.70;0.68;;;;;;;15.68;100.00;99495.84;7395848;19;20029;-62
2023/05/06 00:59:54;;;;;;;5.97;0.85;;;;;;;13.46;100.00;99490.47;7393848;19;20017;-62
2023/05/06 01:02:20;;;;;;;0.35;0.30;;;;;;;13.37;100.00;99487.13;7393517;19;20348;-61
2023/05/06 01:04:46;;;;;;;4.28;0.55;;;;;;;13.65;100.00;99491.53;7395661;19;20007;-61
2023/05/06 01:07:27;;;;;;;1.05;0.30;;;;;;;14.23;100.00;99483.44;7394804;19;20010;-61
2023/05/06 01:10:12;;;;;;;0.88;0.88;;;;;;;12.60;100.00;99493.84;7393488;19;20014;-61
2023/05/06 01:12:50;;;;;;;0.45;0.45;;;;;;;12.19;100.00;99493.28;7393828;19;20062;-61
2023/05/06 01:15:30;;;;;;;2.33;0.70;;;;;;;16.36;100.00;99480.75;7393141;19;20019;-61
2023/05/06 01:17:59;;;;;;;1.38;0.82;;;;;;;20.53;100.00;99485.22;7395467;19;20382;-61
2023/05/06 01:20:26;;;;;;;0.52;0.52;;;;;;;21.39;100.00;99487.53;7399169;19;20027;-61
2023/05/06 01:22:53;;;;;;;1.60;0.85;;;;;;;21.31;100.00;99483.16;7395130;19;20010;-61
2023/05/06 01:25:21;;;;;;;1.75;0.77;;;;;;;20.78;100.00;99477.13;7392557;19;20412;-61
2023/05/06 01:27:48;;;;;;;0.60;0.60;;;;;;;20.64;100.00;99484.94;7395179;19;20380;-61
2023/05/06 01:30:16;;;;;;;0.43;0.35;;;;;;;20.99;100.00;99481.44;7392869;19;20019;-61
2023/05/06 01:33:06;;;;;;;1.20;0.47;;;;;;;22.24;100.00;99482.31;7391236;19;20014;-61
2023/05/06 01:35:45;;;;;;;1.35;0.75;;;;;;;12.13;100.00;99489.69;7391414;19;20010;-61
2023/05/06 01:38:21;;;;;;;0.73;0.73;;;;;;;10.45;100.00;99495.81;7391693;19;20010;-60
2023/05/06 01:40:53;;;;;;;1.50;1.05;;;;;;;10.03;100.00;99503.69;7392051;19;20478;-60
2023/05/06 01:43:20;;;;;;;0.70;0.63;;;;;;;9.77;100.00;99503.47;7393873;19;20471;-61
2023/05/06 01:45:52;;;;;;;1.88;0.55;;;;;;;10.22;100.00;99505.03;7393524;19;20011;-61
2023/05/06 01:48:23;;;;;;;2.05;0.88;;;;;;;9.57;100.00;99499.84;7396309;19;20082;-61
2023/05/06 01:50:49;;;;;;;1.67;0.70;;;;;;;9.60;100.00;99512.75;7394162;19;20011;-61
2023/05/06 01:53:15;;;;;;;3.22;0.60;;;;;;;9.43;100.00;99509.69;7392309;19;20378;-61
2023/05/06 01:55:42;;;;;;;2.20;0.85;;;;;;;9.29;100.00;99520.75;7394163;19;20018;-61
2023/05/06 01:58:08;;;;;;;1.65;0.50;;;;;;;9.32;100.00;99522.56;7396713;19;20015;-60
2023/05/06 02:00:36;;;;;;;1.63;1.00;;;;;;;9.18;100.00;99520.53;7393853;19;20032;-61
2023/05/06 02:03:02;;;;;;;1.65;0.77;;;;;;;9.08;100.00;99520.59;7392836;19;20006;-60
2023/05/06 02:05:28;;;;;;;5.15;0.95;;;;;;;8.98;100.00;99524.69;7391954;19;20051;-61
2023/05/06 02:07:56;;;;;;;5.72;0.77;;;;;;;8.97;100.00;99525.91;7393712;19;20459;-62
2023/05/06 02:10:23;;;;;;;0.77;0.77;;;;;;;8.97;100.00;99523.13;7392579;19;20040;-61
2023/05/06 02:12:56;;;;;;;0.95;0.68;;;;;;;19.58;100.00;99483.88;7391219;19;20010;-61
2023/05/06 02:15:22;;;;;;;3.05;0.70;;;;;;;13.78;100.00;99498.69;7391509;19;20078;-60
2023/05/06 02:17:48;;;;;;;0.73;0.73;;;;;;;10.30;100.00;99511.75;7393773;19;20013;-62
2023/05/06 02:20:14;;;;;;;1.35;0.88;;;;;;;10.68;100.00;99514.34;7395993;19;20011;-61
2023/05/06 02:22:40;;;;;;;0.57;0.30;;;;;;;10.81;100.00;99514.03;7391521;19;20043;-62
2023/05/06 02:25:07;;;;;;;1.00;0.68;;;;;;;10.17;100.00;99511.28;7391301;19;20018;-61
2023/05/06 02:27:33;;;;;;;5.45;1.10;;;;;;;13.12;100.00;99502.81;7393410;19;20027;-62
2023/05/06 02:29:59;;;;;;;2.17;0.80;;;;;;;10.03;100.00;99520.38;7391268;19;20083;-61
2023/05/06 02:32:26;;;;;;;1.10;1.10;;;;;;;9.58;100.00;99521.59;7391063;19;20015;-61
2023/05/06 02:34:53;;;;;;;0.57;0.50;;;;;;;10.64;100.00;99519.38;7392481;19;20037;-61
2023/05/06 02:37:21;;;;;;;0.80;0.63;;;;;;;9.85;100.00;99520.56;7393738;19;20007;-61
2023/05/06 02:39:48;;;;;;;1.27;0.55;;;;;;;9.57;100.00;99527.63;7393015;19;20011;-63
2023/05/06 02:42:17;;;;;;;3.45;1.10;;;;;;;9.56;100.00;99534.41;7391495;19;20018;-61
2023/05/06 02:44:44;;;;;;;1.38;0.93;;;;;;;12.31;100.00;99515.72;7399041;19;20013;-61
2023/05/06 02:47:10;;;;;;;0.60;0.57;;;;;;;11.49;100.00;99514.38;7397396;19;20510;-62
2023/05/06 02:49:37;;;;;;;1.50;0.98;;;;;;;12.19;100.00;99503.69;7401966;19;20017;-61
2023/05/06 02:52:03;;;;;;;0.63;0.47;;;;;;;11.85;100.00;99499.84;7397893;19;20375;-62
2023/05/06 02:54:29;;;;;;;0.85;0.75;;;;;;;12.35;100.00;99486.31;7400462;19;20018;-61
2023/05/06 02:56:56;;;;;;;4.68;0.90;;;;;;;12.02;100.00;99491.59;7399155;19;20357;-61
2023/05/06 02:59:22;;;;;;;3.67;1.25;;;;;;;12.57;100.00;99491.28;7401700;19;20018;-61
2023/05/06 03:01:49;;;;;;;0.95;0.73;;;;;;;13.51;100.00;99489.72;7397916;19;20018;-61
2023/05/06 03:04:15;;;;;;;0.20;0.20;;;;;;;14.21;100.00;99483.19;7399204;19;20014;-62
2023/05/06 03:06:41;;;;;;;0.73;0.50;;;;;;;18.09;100.00;99478.94;7398835;19;20365;-61
2023/05/06 03:09:08;;;;;;;3.63;1.27;;;;;;;22.14;100.00;99472.88;7397481;19;20011;-61
2023/05/06 03:11:34;;;;;;;0.57;0.57;;;;;;;13.01;100.00;99476.78;7400196;19;20014;-62
2023/05/06 03:14:03;;;;;;;0.98;0.50;;;;;;;12.67;100.00;99475.84;7397201;19;20010;-61
2023/05/06 03:16:29;;;;;;;2.70;0.75;;;;;;;12.21;100.00;99475.28;7396189;19;20010;-62
2023/05/06 03:18:58;;;;;;;1.13;0.50;;;;;;;12.94;100.00;99475.25;7398979;19;20764;-61
2023/05/06 03:21:24;;;;;;;0.43;0.43;;;;;;;13.35;100.00;99472.88;7396826;19;20044;-61
2023/05/06 03:23:52;;;;;;;2.15;0.70;;;;;;;12.65;100.00;99467.97;7396521;19;20422;-61
2023/05/06 03:26:20;;;;;;;1.63;0.50;;;;;;;12.24;100.00;99474.28;7396544;19;20066;-62
2023/05/06 03:28:47;;;;;;;1.85;0.98;;;;;;;14.69;100.00;99458.47;7396735;19;20022;-63
2023/05/06 03:31:15;;;;;;;1.10;0.63;;;;;;;12.17;100.00;99464.34;7396352;19;20013;-61
2023/05/06 03:33:41;;;;;;;2.97;0.55;;;;;;;14.49;100.00;99458.00;7396866;19;20092;-61
2023/05/06 03:36:11;;;;;;;0.75;0.50;;;;;;;12.81;100.00;99464.50;7396367;19;20365;-60
2023/05/06 03:38:39;;;;;;;3.80;1.27;;;;;;;12.26;100.00;99474.56;7397541;19;20018;-61
2023/05/06 03:41:08;;;;;;;0.82;0.52;;;;;;;12.05;100.00;99476.66;7396706;19;20014;-62
2023/05/06 03:43:34;;;;;;;1.00;0.65;;;;;;;13.45;100.00;99476.97;7396630;19;20353;-61
2023/05/06 03:46:02;;;;;;;0.95;0.85;;;;;;;12.32;100.00;99467.00;7396579;19;20010;-61
2023/05/06 03:48:30;;;;;;;6.70;0.85;;;;;;;11.84;100.00;99478.78;7396545;19;20018;-61
2023/05/06 03:50:57;;;;;;;0.77;0.45;;;;;;;13.08;100.00;99474.31;7397721;19;20035;-61
2023/05/06 03:53:23;;;;;;;0.80;0.52;;;;;;;12.56;100.00;99468.16;7397863;19;20054;-61
2023/05/06 03:55:51;;;;;;;1.55;0.90;;;;;;;14.30;100.00;99463.34;7393624;19;20010;-61
2023/05/06 03:58:18;;;;;;;1.58;0.93;;;;;;;13.45;100.00;99466.56;7397365;19;20013;-61
2023/05/06 04:00:45;;;;;;;6.22;1.02;;;;;;;11.95;100.00;99464.91;7395040;19;20014;-61
2023/05/06 04:03:12;;;;;;;0.60;0.60;;;;;;;10.90;100.00;99474.13;7395188;19;20021;-62
2023/05/06 04:05:48;;;;;;;2.13;1.55;;;;;;;10.68;100.00;99472.59;7395456;19;20021;-61
2023/05/06 04:08:16;;;;;;;2.72;0.95;;;;;;;11.62;100.00;99477.75;7395567;19;20006;-61
2023/05/06 04:10:44;;;;;;;3.13;0.90;;;;;;;10.69;100.00;99481.72;7397637;19;20014;-61
2023/05/06 04:13:16;;;;;;;0.73;0.73;;;;;;;10.65;100.00;99484.69;7394084;19;20010;-61
2023/05/06 04:15:44;;;;;;;1.90;1.38;;;;;;;10.50;100.00;99492.31;7395165;19;20014;-61
2023/05/06 04:18:17;;;;;;;1.55;0.75;;;;;;;10.50;100.00;99492.31;7395345;19;20025;-61
2023/05/06 04:20:49;;;;;;;4.47;0.68;;;;;;;10.52;100.00;99486.28;7395244;19;20042;-61
2023/05/06 04:23:15;;;;;;;1.52;0.75;;;;;;;10.42;100.00;99491.19;7395389;19;20504;-61
2023/05/06 04:25:47;;;;;;;2.40;0.98;;;;;;;11.87;100.00;99486.16;7394980;19;20020;-61
2023/05/06 04:28:15;;;;;;;1.88;0.45;;;;;;;10.92;100.00;99493.91;7394417;19;20074;-61
2023/05/06 04:30:43;;;;;;;6.65;1.13;;;;;;;10.60;100.00;99496.53;7397102;19;20010;-61
2023/05/06 04:33:10;;;;;;;14.05;1.83;;;;;;;11.55;100.00;99495.69;7393956;19;20487;-61
2023/05/06 04:35:37;;;;;;;9.35;1.10;;;;;;;11.30;100.00;99488.06;7396656;19;20018;-61
2023/05/06 04:38:03;;;;;;;1.45;0.65;;;;;;;10.89;100.00;99495.66;7394085;19;20074;-61
2023/05/06 04:40:32;;;;;;;1.13;0.95;;;;;;;10.77;100.00;99505.13;7394903;19;20443;-62
2023/05/06 04:42:58;;;;;;;2.42;0.55;;;;;;;10.85;100.00;99502.69;7394295;19;20035;-62
2023/05/06 04:45:28;;;;;;;4.10;1.95;;;;;;;10.83;100.00;99503.16;7393895;19;20006;-62
2023/05/06 04:47:55;;;;;;;3.65;1.50;;;;;;;10.83;100.00;99511.53;7394256;19;20007;-62
2023/05/06 04:50:21;;;;;;;2.75;1.10;;;;;;;11.00;100.00;99517.34;7397333;19;20066;-62
2023/05/06 04:52:47;;;;;;;9.40;0.95;;;;;;;11.09;100.00;99509.59;7394312;19;20045;-63
2023/05/06 04:55:16;;;;;;;4.97;0.80;;;;;;;11.33;100.00;99512.16;7393916;19;20019;-63
2023/05/06 04:57:47;;;;;;;2.10;0.95;;;;;;;11.83;100.00;99516.31;7394186;19;20443;-63
2023/05/06 05:00:13;;;;;;;0.85;0.68;;;;;;;11.63;100.00;99515.56;7397060;19;20102;-62
2023/05/06 05:02:40;;;;;;;5.10;1.55;;;;;;;11.74;100.00;99501.72;7395274;19;20012;-62
2023/05/06 05:05:07;;;;;;;0.85;0.85;;;;;;;11.45;100.00;99508.25;7394118;19;20038;-62
2023/05/06 05:07:33;;;;;;;4.65;1.05;;;;;;;11.32;100.00;99505.84;7393106;19;20025;-62
2023/05/06 05:09:59;;;;;;;2.60;0.63;;;;;;;11.83;100.00;99516.31;7394778;19;20014;-62
2023/05/06 05:12:26;;;;;;;1.55;0.90;;;;;;;13.99;100.00;99525.19;7392509;19;20022;-62
2023/05/06 05:14:52;;;;;;;0.60;0.60;;;;;;;14.10;100.00;99491.59;7392467;19;20557;-62
2023/05/06 05:17:19;;;;;;;4.05;1.83;;;;;;;14.70;100.00;99502.03;7392297;19;20014;-61
2023/05/06 05:19:47;;;;;;;2.20;0.90;;;;;;;13.46;100.00;99500.91;7396233;19;20348;-62
2023/05/06 05:22:15;;;;;;;4.53;0.75;;;;;;;13.15;100.00;99506.59;7393170;19;20015;-62
2023/05/06 05:24:42;;;;;;;3.00;0.55;;;;;;;12.81;100.00;99519.63;7394614;19;20035;-62
2023/05/06 05:27:09;;;;;;;2.03;1.08;;;;;;;12.04;100.00;99531.72;7392461;19;20070;-62
2023/05/06 05:29:37;;;;;;;2.97;0.45;;;;;;;11.76;100.00;99533.47;7393501;19;20022;-62
2023/05/06 05:32:06;;;;;;;7.90;1.50;;;;;;;11.68;100.00;99537.94;7392179;19;20017;-61
2023/05/06 05:34:32;;;;;;;0.70;0.70;;;;;;;11.84;100.00;99540.16;7392687;19;20040;-62
2023/05/06 05:36:58;;;;;;;2.15;1.13;;;;;;;14.63;100.00;99533.38;7392704;19;20018;-62
2023/05/06 05:39:25;;;;;;;0.95;0.95;;;;;;;13.79;100.00;99517.00;7393014;19;20010;-61
2023/05/06 05:41:53;;;;;;;5.63;1.13;;;;;;;13.73;100.00;99528.19;7392355;19;20075;-62
2023/05/06 05:44:20;;;;;;;7.30;1.58;;;;;;;14.41;100.00;99522.19;7392780;19;20377;-62
2023/05/06 05:46:48;;;;;;;2.45;1.02;;;;;;;14.60;100.00;99523.19;7395868;19;20010;-62
2023/05/06 05:49:18;;;;;;;3.58;1.25;;;;;;;16.01;100.00;99509.66;7394360;19;20329;-62
2023/05/06 05:51:44;;;;;;;5.10;2.20;;;;;;;15.08;100.00;99518.00;7394926;19;20019;-61
2023/05/06 05:54:14;;;;;;;6.28;1.90;;;;;;;15.03;100.00;99520.81;7395547;19;20018;-61
2023/05/06 05:56:41;;;;;;;6.18;1.27;;;;;;;13.28;100.00;99520.91;7394473;19;20041;-62
2023/05/06 05:59:07;;;;;;;4.90;1.48;;;;;;;14.09;100.00;99529.28;7395195;19;20022;-61
2023/05/06 06:01:34;;;;;;;3.55;1.70;;;;;;;12.88;100.00;99538.72;7393250;19;20010;-63
2023/05/06 06:04:01;;;;;;;6.07;1.30;;;;;;;15.12;100.00;99535.31;7394780;19;20027;-64
2023/05/06 06:06:27;;;;;;;4.13;1.40;;;;;;;15.54;100.00;99527.81;7398239;19;20018;-63
2023/05/06 06:08:54;;;;;;;6.93;2.28;;;;;;;15.36;100.00;99533.97;7390777;19;20014;-64
2023/05/06 06:11:21;;;;;;;4.18;1.65;;;;;;;14.91;100.00;99522.13;7395331;19;20024;-63
2023/05/06 06:13:47;;;;;;;3.58;1.05;;;;;;;16.94;100.00;99523.44;7393247;19;20017;-63
2023/05/06 06:16:14;;;;;;;3.97;1.90;;;;;;;19.79;100.00;99525.56;7391523;19;20036;-63
2023/05/06 06:18:40;;;;;;;6.53;1.30;;;;;;;18.33;100.00;99522.38;7397013;19;20464;-63
2023/05/06 06:21:06;;;;;;;2.92;0.68;;;;;;;19.60;100.00;99526.47;7399699;19;20017;-64
2023/05/06 06:23:34;;;;;;;3.10;1.38;;;;;;;19.60;100.00;99532.09;7398742;19;20018;-65
2023/05/06 06:26:02;;;;;;;6.30;1.20;;;;;;;19.66;100.00;99537.66;7398563;19;20018;-64
2023/05/06 06:28:30;;;;;;;5.15;1.60;;;;;;;13.89;100.00;99535.09;7396607;19;20017;-63
2023/05/06 06:30:56;;;;;;;3.05;1.08;;;;;;;15.47;100.00;99536.75;7397946;19;20026;-64
2023/05/06 06:33:22;;;;;;;7.03;2.15;;;;;;;15.28;100.00;99535.78;7400205;19;20455;-64
2023/05/06 06:35:48;;;;;;;3.13;0.47;;;;;;;15.87;100.00;99527.63;7398577;19;20609;-64
2023/05/06 06:38:14;;;;;;;9.52;2.30;;;;;;;15.15;100.00;99528.69;7400281;19;20467;-63
2023/05/06 06:40:40;;;;;;;0.80;0.50;;;;;;;15.14;100.00;99535.56;7399436;19;20007;-63
2023/05/06 06:43:07;;;;;;;17.50;1.85;;;;;;;18.56;100.00;99526.41;7403777;19;20006;-63
2023/05/06 06:45:55;;;;;;;4.22;1.52;;;;;;;16.63;100.00;99528.34;7397642;19;20014;-63
2023/05/06 06:48:21;;;;;;;3.60;1.95;;;;;;;16.73;100.00;99525.19;7399628;19;20015;-63
2023/05/06 06:50:47;;;;;;;6.45;2.08;;;;;;;13.95;100.00;99533.06;7399963;19;20058;-63
2023/05/06 06:53:13;;;;;;;5.32;1.33;;;;;;;13.40;100.00;99554.03;7404319;19;20492;-63
2023/05/06 06:55:43;;;;;;;2.65;0.50;;;;;;;13.07;100.00;99548.28;7399807;19;20039;-64
2023/05/06 06:58:10;;;;;;;6.22;0.60;;;;;;;13.09;100.00;99556.91;7399275;19;20006;-63
2023/05/06 07:00:36;;;;;;;1.20;0.68;;;;;;;13.26;100.00;99554.97;7400055;19;20014;-64
2023/05/06 07:03:02;;;;;;;5.35;0.90;;;;;;;13.25;100.00;99556.25;7401326;19;20014;-64
2023/05/06 07:05:28;;;;;;;6.72;2.03;;;;;;;13.33;100.00;99562.91;7399412;19;20479;-65
2023/05/06 07:07:54;;;;;;;12.40;1.90;;;;;;;13.44;100.00;99548.97;7399034;19;20475;-64
2023/05/06 07:10:21;;;;;;;9.13;0.70;;;;;;;15.61;100.00;99536.44;7398516;19;20006;-63
2023/05/06 07:12:47;;;;;;;6.07;0.82;;;;;;;15.70;100.00;99526.97;7403415;19;20011;-63
2023/05/06 07:15:13;;;;;;;1.85;0.50;;;;;;;15.83;100.00;99530.69;7397167;19;20018;-64
2023/05/06 07:17:39;;;;;;;6.45;1.95;;;;;;;13.92;100.00;99542.50;7397239;19;20031;-64
2023/05/06 07:20:06;;;;;;;0.52;0.52;;;;;;;13.64;100.00;99545.22;7402657;19;20019;-63
2023/05/06 07:22:32;;;;;;;16.30;2.25;;;;;;;13.81;100.00;99556.47;7400081;19;20032;-64
2023/05/06 07:25:00;;;;;;;5.10;1.48;;;;;;;13.61;100.00;99551.81;7399173;19;20019;-64
2023/05/06 07:27:29;;;;;;;5.70;1.10;;;;;;;13.71;100.00;99547.50;7396538;19;20018;-64
2023/05/06 07:29:55;;;;;;;0.40;0.40;;;;;;;13.73;100.00;99552.63;7392981;19;20045;-63
2023/05/06 07:32:21;;;;;;;2.38;0.55;;;;;;;13.82;100.00;99555.94;7401676;19;20010;-63
2023/05/06 07:34:47;;;;;;;6.75;1.02;;;;;;;14.13;100.00;99546.59;7401902;19;20010;-63
2023/05/06 07:37:14;;;;;;;5.38;1.15;;;;;;;13.90;100.00;99551.41;7401533;19;20455;-64
2023/05/06 07:39:40;;;;;;;1.42;0.43;;;;;;;14.68;100.00;99543.84;7398004;19;20393;-64
2023/05/06 07:42:07;;;;;;;0.17;0.10;;;;;;;19.33;100.00;99519.31;7395658;19;20325;-64
2023/05/06 07:44:33;;;;;;;3.13;0.75;;;;;;;15.62;100.00;99521.13;7400949;19;20007;-64
2023/05/06 07:47:00;;;;;;;8.90;0.88;;;;;;;14.79;100.00;99523.44;7397426;19;20015;-63
2023/05/06 07:49:27;;;;;;;5.07;0.47;;;;;;;15.29;100.00;99529.66;7398723;19;20519;-64
2023/05/06 07:51:54;;;;;;;1.77;1.00;;;;;;;16.72;100.00;99523.69;7397368;19;20427;-64
2023/05/06 07:54:20;;;;;;;1.65;0.90;;;;;;;15.12;100.00;99529.72;7400731;19;20028;-64
2023/05/06 07:56:46;;;;;;;6.05;0.55;;;;;;;15.48;100.00;99525.03;7397504;19;20015;-64
2023/05/06 07:59:13;;;;;;;0.77;0.40;;;;;;;15.77;100.00;99526.38;7396687;19;20169;-65
2023/05/06 08:01:39;;;;;;;5.93;0.93;;;;;;;17.98;100.00;99524.19;7396767;19;20325;-65
2023/05/06 08:04:06;;;;;;;0.65;0.35;;;;;;;17.54;100.00;99530.47;7399871;19;20378;-64
2023/05/06 08:06:32;;;;;;;6.50;1.17;;;;;;;16.90;100.00;99531.41;7395867;19;20026;-64
2023/05/06 08:08:59;;;;;;;1.73;0.52;;;;;;;16.48;100.00;99535.63;7396617;19;20582;-64
2023/05/06 08:11:25;;;;;;;0.57;0.28;;;;;;;17.83;100.00;99546.44;7398390;19;20343;-64
2023/05/06 08:13:51;;;;;;;1.40;0.60;;;;;;;16.35;100.00;99530.59;7395937;19;20459;-63
2023/05/06 08:16:17;;;;;;;5.22;0.63;;;;;;;15.88;100.00;99543.94;7400686;19;20029;-64
2023/05/06 08:18:43;;;;;;;7.00;0.75;;;;;;;17.34;100.00;99536.56;7397600;19;20834;-64
2023/05/06 08:21:10;;;;;;;2.08;0.30;;;;;;;15.57;100.00;99540.81;7396837;19;20094;-64
2023/05/06 08:23:36;;;;;;;1.55;0.43;;;;;;;18.48;100.00;99548.06;7396320;19;20516;-65
2023/05/06 08:26:02;;;;;;;4.93;0.85;;;;;;;16.71;100.00;99534.16;7398393;19;20018;-64
2023/05/06 08:28:28;;;;;;;3.10;0.20;;;;;;;15.36;100.00;99536.75;7395213;19;20018;-64
2023/05/06 08:30:55;;;;;;;1.63;0.40;;;;;;;15.09;100.00;99553.16;7395759;19;20049;-64
2023/05/06 08:33:21;;;;;;;1.08;0.57;;;;;;;16.13;100.00;99547.63;7396021;19;20467;-64
2023/05/06 08:35:47;;;;;;;1.80;0.73;;;;;;;15.40;100.00;99542.91;7397770;19;20015;-64
2023/05/06 08:38:13;;;;;;;0.35;0.20;;;;;;;15.64;100.00;99545.84;7395898;19;20018;-64
2023/05/06 08:40:42;;;;;;;1.17;0.40;;;;;;;15.30;100.00;99544.44;7394985;19;20013;-65
2023/05/06 08:43:13;;;;;;;1.60;0.85;;;;;;;21.89;100.00;99537.09;7394825;19;20048;-64
2023/05/06 08:45:40;;;;;;;5.40;0.85;;;;;;;17.29;100.00;99537.38;7395412;19;20070;-64
2023/05/06 08:48:07;;;;;;;4.70;0.35;;;;;;;17.33;100.00;99532.97;7395388;19;20010;-64
2023/05/06 08:50:39;;;;;;;1.05;0.20;;;;;;;16.31;100.00;99535.72;7391433;19;20086;-64
2023/05/06 08:53:06;;;;;;;6.75;0.75;;;;;;;15.98;100.00;99541.59;7395600;19;20036;-64
2023/05/06 08:55:33;;;;;;;3.33;1.13;;;;;;;16.52;100.00;99539.66;7396088;19;20010;-65
2023/05/06 08:58:00;;;;;;;2.97;0.55;;;;;;;16.32;100.00;99534.47;7396019;19;20325;-64
2023/05/06 09:00:26;;;;;;;3.30;1.65;;;;;;;16.16;100.00;99538.16;7395061;19;20125;-65
2023/05/06 09:02:52;;;;;;;2.70;0.45;;;;;;;16.52;100.00;99533.31;7394842;19;20027;-65
2023/05/06 09:05:18;;;;;;;3.17;0.40;;;;;;;16.62;100.00;99532.44;7395778;19;20220;-65
2023/05/06 09:07:45;;;;;;;0.73;0.30;;;;;;;16.70;100.00;99531.88;7394760;19;20013;-65
2023/05/06 09:10:12;;;;;;;1.55;0.30;;;;;;;16.75;100.00;99539.47;7394930;19;20019;-64
2023/05/06 09:12:38;;;;;;;1.95;0.57;;;;;;;16.54;100.00;99539.16;7395301;19;20014;-63
2023/05/06 09:15:05;;;;;;;5.93;0.40;;;;;;;16.81;100.00;99537.38;7394510;19;20405;-64
2023/05/06 09:17:31;;;;;;;4.35;0.40;;;;;;;16.92;100.00;99537.25;7394613;19;20014;-66
2023/05/06 09:20:01;;;;;;;0.63;0.22;;;;;;;17.10;100.00;99533.75;7396505;19;20030;-65
2023/05/06 09:22:28;;;;;;;4.28;0.43;;;;;;;17.18;100.00;99535.44;7392831;19;20017;-66
2023/05/06 09:24:56;;;;;;;9.32;0.73;;;;;;;16.38;100.00;99529.56;7392739;19;20010;-65
2023/05/06 09:27:35;;;;;;;3.78;0.40;;;;;;;16.43;100.00;99537.19;7391996;19;20015;-65
2023/05/06 09:30:04;;;;;;;1.08;0.25;;;;;;;17.67;100.00;99530.50;7391568;19;20010;-64
2023/05/06 09:32:31;;;;;;;1.00;0.32;;;;;;;17.35;100.00;99529.63;7393180;19;20014;-65
2023/05/06 09:34:58;;;;;;;0.43;0.30;;;;;;;17.17;100.00;99524.72;7393600;19;20063;-65
2023/05/06 09:37:27;;;;;;;4.80;0.63;;;;;;;16.78;100.00;99535.63;7393761;19;20336;-66
2023/05/06 09:39:56;;;;;;;2.73;0.83;;;;;;;17.25;100.00;99532.03;7394536;19;20014;-66
2023/05/06 09:42:27;;;;;;;6.47;0.55;;;;;;;17.85;100.00;99534.63;7393161;19;20048;-66
2023/05/06 09:44:55;;;;;;;6.72;0.82;;;;;;;16.59;100.00;99536.28;7391591;19;20019;-65
2023/05/06 09:47:24;;;;;;;1.48;0.20;;;;;;;17.04;100.00;99533.06;7392576;19;20010;-64
2023/05/06 09:49:54;;;;;;;4.95;0.55;;;;;;;16.05;100.00;99532.59;7395412;19;20014;-65
2023/05/06 09:52:22;;;;;;;1.10;0.55;;;;;;;16.03;100.00;99529.56;7392952;19;20031;-66
2023/05/06 09:54:50;;;;;;;0.52;0.30;;;;;;;15.76;100.00;99536.88;7392278;19;20015;-65
2023/05/06 09:57:17;;;;;;;7.32;1.80;;;;;;;15.71;100.00;99531.28;7396666;19;20025;-66
2023/05/06 09:59:44;;;;;;;1.85;0.68;;;;;;;15.70;100.00;99529.78;7393375;19;20011;-66
2023/05/06 10:02:12;;;;;;;8.68;1.05;;;;;;;15.73;100.00;99535.09;7392253;19;20014;-66
2023/05/06 10:04:42;;;;;;;1.88;0.52;;;;;;;15.74;100.00;99538.69;7393181;19;20033;-66
2023/05/06 10:07:11;;;;;;;1.80;0.60;;;;;;;17.91;100.00;99536.06;7396898;19;20018;-65
2023/05/06 10:09:39;;;;;;;6.43;1.20;;;;;;;16.32;100.00;99528.84;7392620;19;20260;-66
2023/05/06 10:12:07;;;;;;;4.82;1.17;;;;;;;15.88;100.00;99526.31;7393209;19;20011;-65
2023/05/06 10:14:36;;;;;;;3.25;0.50;;;;;;;16.38;100.00;99529.56;7393538;19;20011;-64
2023/05/06 10:17:08;;;;;;;3.75;0.57;;;;;;;15.89;100.00;99522.25;7396863;19;20519;-65
2023/05/06 10:19:36;;;;;;;0.95;0.40;;;;;;;17.05;100.00;99521.28;7395674;19;20337;-66
2023/05/06 10:22:10;;;;;;;2.30;0.52;;;;;;;15.80;100.00;99530.97;7392168;19;20070;-66
2023/05/06 10:24:46;;;;;;;0.75;0.50;;;;;;;15.56;100.00;99522.44;7393122;19;20015;-65
2023/05/06 10:27:17;;;;;;;1.35;0.63;;;;;;;15.43;100.00;99530.63;7396557;19;20011;-66
2023/05/06 10:29:43;;;;;;;1.35;0.20;;;;;;;15.55;100.00;99534.94;7392151;19;20019;-65
2023/05/06 10:32:11;;;;;;;3.90;0.60;;;;;;;16.55;100.00;99521.75;7392554;19;20007;-65
2023/05/06 10:34:48;;;;;;;1.98;0.35;;;;;;;16.01;100.00;99523.69;7393017;19;20035;-66
2023/05/06 10:37:14;;;;;;;3.92;0.22;;;;;;;16.19;100.00;99527.91;7396595;19;20022;-65
2023/05/06 10:39:42;;;;;;;3.13;0.50;;;;;;;15.74;100.00;99521.84;7393099;19;20014;-65
2023/05/06 10:42:11;;;;;;;5.05;0.57;;;;;;;15.86;100.00;99524.06;7392814;19;20463;-65
2023/05/06 10:44:57;;;;;;;5.13;0.47;;;;;;;15.75;100.00;99526.16;7392430;19;20017;-63
2023/05/06 10:47:23;;;;;;;2.50;0.85;;;;;;;16.16;100.00;99523.31;7396467;19;20043;-63
2023/05/06 10:50:20;;;;;;;0.40;0.40;;;;;;;15.76;100.00;99522.06;7394501;19;20016;-62
2023/05/06 10:52:51;;;;;;;2.33;0.40;;;;;;;15.61;100.00;99524.44;7392579;19;20023;-64
2023/05/06 10:55:25;;;;;;;1.60;0.63;;;;;;;15.46;100.00;99521.97;7392372;19;20019;-64
2023/05/06 10:58:15;;;;;;;2.42;0.63;;;;;;;15.67;100.00;99528.00;7391524;19;20022;-63
2023/05/06 11:00:53;;;;;;;3.83;0.63;;;;;;;15.81;100.00;99532.50;7392196;19;20467;-63
2023/05/06 11:03:22;;;;;;;2.50;0.73;;;;;;;15.76;100.00;99527.69;7392447;19;20078;-63
2023/05/06 11:05:50;;;;;;;0.50;0.25;;;;;;;15.76;100.00;99525.66;7398552;19;20076;-63
2023/05/06 11:08:26;;;;;;;5.38;0.65;;;;;;;15.93;100.00;99517.13;7398091;19;20043;-62
2023/05/06 11:10:53;;;;;;;0.82;0.73;;;;;;;15.86;100.00;99517.66;7402240;19;20018;-63
2023/05/06 11:13:25;;;;;;;8.98;0.70;;;;;;;16.23;100.00;99517.16;7399235;19;20022;-62
2023/05/06 11:15:52;;;;;;;1.10;0.80;;;;;;;16.06;100.00;99516.50;7397579;19;20049;-63
2023/05/06 11:18:28;;;;;;;2.35;0.98;;;;;;;17.93;100.00;99507.38;7398771;19;20015;-63
2023/05/06 11:20:59;;;;;;;3.10;0.95;;;;;;;16.74;100.00;99510.59;7396757;19;20014;-63
2023/05/06 11:23:41;;;;;;;0.70;0.38;;;;;;;16.64;100.00;99513.00;7398653;19;20016;-63
2023/05/06 11:26:11;;;;;;;4.57;0.73;;;;;;;17.04;100.00;99505.69;7399572;19;20045;-62
2023/05/06 11:28:38;;;;;;;0.30;0.30;;;;;;;16.54;100.00;99514.63;7398219;19;20018;-63
2023/05/06 11:31:05;;;;;;;1.45;0.47;;;;;;;16.83;100.00;99523.56;7398046;19;20371;-62